Data for 02/12/2005

Time Sea-Level Adjusted Pressure Absolute Pressure Temperature Relative Humidity Dew Point   
(mb) (inHg) (mb) (inHg) (C) (F) (%) (C) (F)
00:05 1011 29.85 840 24.81 1.1 34 34 -13.1 8.5
00:10 1011 29.85 840 24.81 1.4 34.5 32 -13.5 7.7
00:15 1011 29.85 840 24.81 1.9 35.4 30 -13.9 6.9
00:20 1011 29.85 840 24.81 2.4 36.3 29 -13.8 7.2
00:25 1011 29.85 840 24.81 2.7 36.8 28 -14.1 6.6
00:30 1011 29.85 840 24.81 2.9 37.3 29 -13.3 8
00:35 1011 29.85 840 24.81 3 37.3 26 -14.6 5.8
00:40 1010 29.83 840 24.81 3 37.5 30 -13.1 8.4
00:45 1010 29.83 840 24.81 2.3 36.2 34 -11.9 10.6
00:50 1010 29.83 840 24.81 1.8 35.3 33 -12.8 9
00:55 1010 29.83 840 24.81 1.6 34.8 33 -13 8.6
01:00 1010 29.83 840 24.81 1.4 34.5 37 -11.8 10.8
01:05 1010 29.83 839 24.78 0.6 33.1 41 -11.2 11.8
01:10 1010 29.83 839 24.78 0.6 33.1 43 -10.5 13.2
01:15 1010 29.83 839 24.78 0.6 33 42 -10.9 12.3
01:20 1010 29.83 839 24.78 0.8 33.4 42 -10.8 12.5
01:25 1010 29.83 839 24.78 0.8 33.4 38 -11.8 10.7
01:30 1010 29.83 839 24.78 1.3 34.3 36 -12.3 9.8
01:35 1010 29.83 839 24.78 1.8 35.3 33 -12.9 8.8
01:40 1010 29.83 839 24.78 2.2 35.9 31 -13.2 8.2
01:45 1010 29.83 839 24.78 2.7 36.8 30 -13.4 7.8
01:50 1010 29.83 839 24.78 2.9 37.2 30 -13.2 8.2
01:55 1010 29.83 839 24.78 2.1 35.7 34 -12.2 10
02:00 1010 29.83 839 24.78 1.7 35 35 -12.4 9.7
02:05 1010 29.83 839 24.78 1.9 35.4 33 -12.8 9
02:10 1010 29.83 839 24.78 2.1 35.7 35 -11.8 10.7
02:15 1010 29.83 839 24.78 1.7 35 37 -11.6 11
02:20 1010 29.83 839 24.78 1.5 34.7 38 -11.2 11.8
02:25 1010 29.83 839 24.78 1.3 34.4 35 -12.5 9.5
02:30 1010 29.83 839 24.78 1.6 35 35 -12.2 10
02:35 1010 29.83 839 24.78 1.7 35.1 36 -11.9 10.6
02:40 1010 29.83 839 24.78 1.6 34.9 37 -11.4 11.4
02:45 1010 29.83 839 24.78 1.5 34.7 39 -10.9 12.4
02:50 1010 29.83 839 24.78 1.5 34.7 40 -10.6 12.9
02:55 1010 29.83 839 24.78 1.5 34.7 42 -10 13.9
03:00 1010 29.83 839 24.78 1.3 34.4 42 -10.3 13.5
03:05 1010 29.83 839 24.78 1.4 34.5 44 -9.6 14.7
03:10 1010 29.83 839 24.78 1.6 34.9 43 -9.8 14.4
03:15 1010 29.83 839 24.78 1.9 35.4 39 -10.6 13
03:20 1010 29.83 839 24.78 2.1 35.7 33 -12.7 9.2
03:25 1010 29.83 839 24.78 2.1 35.8 37 -11.1 12
03:30 1010 29.83 839 24.78 1.7 35 38 -11.3 11.6
03:35 1010 29.83 839 24.78 1.2 34.2 42 -10.3 13.5
03:40 1010 29.83 839 24.78 0.9 33.7 45 -9.8 14.4
03:45 1010 29.83 839 24.78 1.3 34.3 36 -12.1 10.2
03:50 1010 29.83 839 24.78 2.3 36.1 33 -12.3 9.9
03:55 1010 29.83 839 24.78 2.9 37.2 31 -12.5 9.5
04:00 1010 29.83 839 24.78 3.4 38.1 32 -12 10.4
04:05 1010 29.83 839 24.78 3.6 38.5 34 -10.8 12.6
04:10 1010 29.83 839 24.78 4.8 40.6 38 -8.5 16.7
04:15 1010 29.83 839 24.78 5 41 35 -9.2 15.4
04:20 1010 29.83 839 24.78 4.7 40.5 37 -8.6 16.5
04:25 1010 29.83 839 24.78 4.9 40.8 36 -8.8 16.1
04:30 1010 29.83 839 24.78 4.8 40.6 39 -8 17.5
04:35 1010 29.83 839 24.78 5.2 41.4 46 -5.3 22.4
04:40 1010 29.83 839 24.78 6.4 43.4 41 -5.9 21.3
04:45 1010 29.83 839 24.78 5.8 42.5 46 -4.8 23.3
04:50 1010 29.83 839 24.78 5.6 42.1 47 -4.9 23.2
04:55 1010 29.83 839 24.78 5.9 42.5 52 -3.1 26.4
05:00 1010 29.83 839 24.78 5.8 42.4 53 -2.9 26.7
05:05 1010 29.83 839 24.78 5.8 42.5 53 -2.9 26.7
05:10 1010 29.83 839 24.78 6 42.8 55 -2.3 27.8
05:15 1010 29.83 839 24.78 5.9 42.6 57 -2 28.3
05:20 1010 29.83 839 24.78 5.8 42.4 60 -1.4 29.4
05:25 1010 29.83 839 24.78 5.2 41.4 70 0.2 32.3
05:30 1010 29.83 839 24.78 4.5 40.1 74 0.3 32.6
05:35 1010 29.83 840 24.81 4.4 39.9 77 0.6 33.1
05:40 1010 29.83 840 24.81 4.3 39.7 78 0.7 33.3
05:45 1010 29.83 839 24.78 4.1 39.3 78 0.6 33
05:50 1010 29.83 839 24.78 4 39.1 79 0.6 33.1
05:55 1010 29.83 839 24.78 3.9 39.1 81 1 33.8
06:00 1010 29.83 839 24.78 3.9 39 81 0.9 33.6
06:05 1010 29.83 839 24.78 3.9 38.9 80 0.6 33.2
06:10 1010 29.83 839 24.78 3.9 39 80 0.7 33.3
06:15 1010 29.83 839 24.78 3.9 38.9 79 0.6 33.1
06:20 1010 29.83 839 24.78 3.8 38.8 81 0.8 33.4
06:25 1010 29.83 839 24.78 3.8 38.8 81 0.8 33.5
06:30 1010 29.83 839 24.78 3.5 38.2 85 1.2 34.2
06:35 1010 29.83 839 24.78 3 37.3 86 0.8 33.5
06:40 1010 29.83 839 24.78 2.9 37.2 84 0.4 32.7
06:45 1010 29.83 839 24.78 2.9 37.2 81 -0.1 31.8
06:50 1010 29.83 839 24.78 2.7 36.9 79 -0.5 31.1
06:55 1009 29.8 839 24.78 2.5 36.5 82 -0.2 31.6
07:00 1009 29.8 839 24.78 2.2 36 84 -0.1 31.8
07:05 1009 29.8 838 24.75 2.1 35.7 86 -0.1 31.8
07:10 1009 29.8 838 24.75 2.1 35.8 86 -0 32
07:15 1009 29.8 838 24.75 2.1 35.8 86 0 32.1
07:20 1009 29.8 838 24.75 2.1 35.7 87 0.1 32.1
07:25 1009 29.8 838 24.75 2 35.5 87 0.1 32.1
07:30 1009 29.8 838 24.75 1.9 35.5 88 0.1 32.2
07:35 1009 29.8 838 24.75 2 35.5 88 0.2 32.3
07:40 1009 29.8 838 24.75 1.9 35.5 88 0.2 32.3
07:45 1009 29.8 838 24.75 2 35.6 88 0.3 32.5
07:50 1009 29.8 838 24.75 2 35.6 88 0.3 32.5
07:55 1009 29.8 838 24.75 2.2 35.9 87 0.2 32.3
08:00 1009 29.8 838 24.75 2.2 36 86 0.1 32.1
08:05 1009 29.8 838 24.75 2.3 36.1 85 0 32.1
08:10 1009 29.8 838 24.75 2.2 36 85 -0 32
08:15 1009 29.8 838 24.75 2.2 36 86 0.1 32.1
08:20 1009 29.8 838 24.75 2.2 36 85 -0 31.9
08:25 1009 29.8 838 24.75 2.4 36.3 84 0 32
08:30 1009 29.8 838 24.75 2.4 36.3 85 0.1 32.1
08:35 1009 29.8 838 24.75 2.4 36.3 85 0.1 32.1
08:40 1009 29.8 838 24.75 2.3 36.2 85 0.1 32.2
08:45 1009 29.8 838 24.75 2.5 36.5 85 0.2 32.4
08:50 1009 29.8 838 24.75 2.4 36.4 86 0.3 32.5
08:55 1009 29.8 838 24.75 2.3 36.1 85 0.1 32.1
09:00 1009 29.8 838 24.75 2.2 36 86 0.2 32.3
09:05 1009 29.8 838 24.75 2.3 36.1 86 0.1 32.2
09:10 1009 29.8 838 24.75 2.7 36.8 84 0.2 32.4
09:15 1009 29.8 838 24.75 2.7 36.8 84 0.3 32.5
09:20 1009 29.8 838 24.75 2.6 36.7 87 0.6 33.1
09:25 1009 29.8 838 24.75 2.9 37.2 85 0.6 33.1
09:30 1009 29.8 838 24.75 3.2 37.7 83 0.6 33.1
09:35 1009 29.8 838 24.75 3.4 38 84 0.9 33.6
09:40 1009 29.8 838 24.75 3.5 38.2 84 1 33.7
09:45 1009 29.8 838 24.75 2.7 36.9 88 1 33.8
09:50 1009 29.8 838 24.75 2.3 36.2 90 0.8 33.4
09:55 1009 29.8 838 24.75 2.7 36.9 86 0.7 33.2
10:00 1009 29.8 838 24.75 3 37.5 83 0.5 32.8
10:05 1009 29.8 838 24.75 3.1 37.6 80 -0.1 31.8
10:10 1009 29.8 838 24.75 3.1 37.7 79 -0.2 31.6
10:15 1009 29.8 838 24.75 3.2 37.7 78 -0.3 31.5
10:20 1009 29.8 838 24.75 3.2 37.8 77 -0.4 31.3
10:25 1009 29.8 838 24.75 3.2 37.7 78 -0.3 31.4
10:30 1009 29.8 838 24.75 3 37.4 80 -0.1 31.7
10:35 1009 29.8 838 24.75 3 37.4 78 -0.4 31.3
10:40 1009 29.8 838 24.75 3 37.5 79 -0.2 31.6
10:45 1009 29.8 838 24.75 3 37.4 80 -0.1 31.8
10:50 1009 29.8 838 24.75 3.2 37.8 78 -0.3 31.5
10:55 1009 29.8 838 24.75 3.5 38.3 77 -0.1 31.8
11:00 1009 29.8 839 24.78 3.7 38.7 74 -0.4 31.2
11:05 1009 29.8 839 24.78 3.9 39 71 -0.8 30.6
11:10 1009 29.8 839 24.78 4.2 39.5 71 -0.6 30.9
11:15 1009 29.8 839 24.78 4.3 39.7 72 -0.4 31.3
11:20 1009 29.8 839 24.78 4.4 40 69 -0.8 30.6
11:25 1009 29.8 839 24.78 4.4 39.9 69 -0.8 30.5
11:30 1009 29.8 839 24.78 4.5 40.1 67 -1 30.2
11:35 1009 29.8 839 24.78 4.6 40.3 67 -1.1 30.1
11:40 1010 29.83 839 24.78 4.7 40.5 66 -1.1 30
11:45 1010 29.83 839 24.78 4.9 40.8 66 -0.9 30.4
11:50 1010 29.83 839 24.78 4.9 40.9 66 -0.8 30.6
11:55 1010 29.83 839 24.78 5 40.9 66 -0.9 30.3
12:00 1010 29.83 839 24.78 5 41 63 -1.3 29.6
12:05 1009 29.8 839 24.78 5 40.9 64 -1.3 29.6
12:10 1009 29.8 839 24.78 4.9 40.8 66 -1 30.3
12:15 1009 29.8 839 24.78 5 41 65 -1.1 30.1
12:20 1009 29.8 839 24.78 5.1 41.1 63 -1.3 29.7
12:25 1009 29.8 838 24.75 5.1 41.2 62 -1.7 29
12:30 1009 29.8 838 24.75 4.5 40.1 65 -1.6 29.2
12:35 1009 29.8 838 24.75 4.6 40.3 64 -1.6 29.1
12:40 1009 29.8 838 24.75 5.1 41.2 65 -0.8 30.5
12:45 1009 29.8 838 24.75 5.4 41.8 64 -0.9 30.5
12:50 1009 29.8 838 24.75 5.2 41.4 64 -1.1 30
12:55 1009 29.8 838 24.75 5.2 41.4 64 -1.1 30.1
13:00 1009 29.8 838 24.75 5.2 41.4 65 -0.7 30.8
13:05 1009 29.8 838 24.75 5 40.9 65 -1.1 30
13:10 1009 29.8 838 24.75 5 41 64 -1.2 29.8
13:15 1009 29.8 838 24.75 5.1 41.2 67 -0.5 31.1
13:20 1009 29.8 838 24.75 5.6 42.1 62 -1 30.2
13:25 1009 29.8 838 24.75 5.7 42.3 65 -0.3 31.4
13:30 1009 29.8 838 24.75 6 42.9 62 -0.6 30.9
13:35 1009 29.8 838 24.75 6.1 43 64 -0.3 31.5
13:40 1009 29.8 838 24.75 6.3 43.3 62 -0.4 31.3
13:45 1009 29.8 838 24.75 6.4 43.6 63 -0.1 31.8
13:50 1009 29.8 838 24.75 6.4 43.6 62 -0.3 31.4
13:55 1009 29.8 838 24.75 6.4 43.6 62 -0.4 31.3
14:00 1009 29.8 838 24.75 6.7 44 60 -0.6 31
14:05 1009 29.8 838 24.75 6.7 44.1 61 -0.2 31.6
14:10 1009 29.8 838 24.75 6.7 44 62 -0.1 31.9
14:15 1009 29.8 838 24.75 6.6 43.9 62 -0.2 31.6
14:20 1008 29.77 838 24.75 6.7 44.1 60 -0.4 31.2
14:25 1008 29.77 838 24.75 6.8 44.2 60 -0.5 31.1
14:30 1008 29.77 838 24.75 7 44.5 60 -0.3 31.4
14:35 1008 29.77 838 24.75 7 44.6 59 -0.4 31.2
14:40 1008 29.77 838 24.75 7.1 44.7 59 -0.4 31.3
14:45 1008 29.77 837 24.72 7.3 45.1 58 -0.4 31.2
14:50 1008 29.77 837 24.72 7.3 45.1 58 -0.3 31.4
14:55 1008 29.77 838 24.75 7.3 45.2 58 -0.4 31.3
15:00 1008 29.77 838 24.75 7.4 45.4 58 -0.4 31.3
15:05 1008 29.77 838 24.75 7.5 45.4 57 -0.6 31
15:10 1008 29.77 838 24.75 7.4 45.3 57 -0.5 31.2
15:15 1008 29.77 838 24.75 7.3 45.1 57 -0.6 31
15:20 1008 29.77 838 24.75 7.3 45.1 57 -0.7 30.7
15:25 1008 29.77 838 24.75 7.3 45.2 56 -0.9 30.4
15:30 1008 29.77 838 24.75 7.4 45.2 49 -2.8 27
15:35 1008 29.77 838 24.75 7.3 45.1 45 -3.7 25.3
15:40 1008 29.77 838 24.75 7.3 45.1 45 -3.8 25.2
15:45 1008 29.77 838 24.75 7.2 45 46 -3.7 25.4
15:50 1008 29.77 838 24.75 7.2 44.9 47 -3.5 25.7
15:55 1008 29.77 838 24.75 7.3 45.1 46 -3.5 25.7
16:00 1009 29.8 838 24.75 7.4 45.2 43 -4.3 24.2
16:05 1009 29.8 838 24.75 7.5 45.6 43 -4.1 24.6
16:10 1009 29.8 838 24.75 7.5 45.4 44 -3.9 25
16:15 1009 29.8 838 24.75 7.3 45.1 47 -3.4 25.9
16:20 1009 29.8 838 24.75 7 44.7 49 -3 26.5
16:25 1009 29.8 838 24.75 6.9 44.4 49 -2.9 26.8
16:30 1009 29.8 838 24.75 6.8 44.3 50 -2.9 26.8
16:35 1009 29.8 838 24.75 6.7 44 51 -2.7 27.2
16:40 1009 29.8 838 24.75 6.6 44 51 -2.7 27.2
16:45 1009 29.8 838 24.75 6.6 44 52 -2.4 27.7
16:50 1009 29.8 838 24.75 6.5 43.7 53 -2.3 27.9
16:55 1009 29.8 838 24.75 6.4 43.5 53 -2.5 27.5
17:00 1009 29.8 838 24.75 6.3 43.4 54 -2.4 27.7
17:05 1009 29.8 838 24.75 6.4 43.5 54 -2.2 28.1
17:10 1009 29.8 838 24.75 6.2 43.2 55 -2.1 28.3
17:15 1009 29.8 838 24.75 6.1 43 56 -2.1 28.2
17:20 1009 29.8 838 24.75 6 42.9 55 -2.2 28
17:25 1009 29.8 838 24.75 6.1 42.9 55 -2.3 27.8
17:30 1009 29.8 838 24.75 6.1 42.9 55 -2.3 27.8
17:35 1009 29.8 838 24.75 6.1 42.9 55 -2.4 27.7
17:40 1009 29.8 838 24.75 6 42.8 54 -2.5 27.5
17:45 1009 29.8 838 24.75 6 42.7 53 -2.8 26.9
17:50 1009 29.8 838 24.75 5.9 42.6 52 -3.1 26.5
17:55 1009 29.8 838 24.75 5.9 42.6 54 -2.8 26.9
18:00 1009 29.8 838 24.75 5.7 42.3 53 -3.1 26.5
18:05 1009 29.8 838 24.75 5.7 42.3 53 -3.2 26.2
18:10 1009 29.8 838 24.75 5.7 42.2 53 -3 26.6
18:15 1009 29.8 838 24.75 5.4 41.8 56 -2.7 27.2
18:20 1009 29.8 838 24.75 5 40.9 59 -2.4 27.8
18:25 1009 29.8 838 24.75 4.7 40.4 61 -2.3 27.9
18:30 1009 29.8 838 24.75 4.6 40.3 60 -2.4 27.6
18:35 1009 29.8 838 24.75 4.6 40.3 61 -2.3 27.8
18:40 1009 29.8 838 24.75 4.6 40.2 60 -2.5 27.6
18:45 1009 29.8 838 24.75 4.6 40.2 60 -2.4 27.7
18:50 1009 29.8 838 24.75 4.4 40 59 -2.8 26.9
18:55 1009 29.8 838 24.75 4.6 40.2 59 -2.8 27
19:00 1009 29.8 838 24.75 4.6 40.2 59 -2.8 27
19:05 1009 29.8 838 24.75 4.4 39.9 59 -2.8 26.9
19:10 1009 29.8 839 24.78 4.3 39.7 60 -2.9 26.9
19:15 1009 29.8 839 24.78 4.2 39.5 60 -3 26.7
19:20 1009 29.8 839 24.78 4.1 39.4 60 -2.9 26.7
19:25 1010 29.83 839 24.78 3.9 39.1 60 -3.1 26.5
19:30 1010 29.83 839 24.78 3.9 39 60 -3.3 26.1
19:35 1010 29.83 839 24.78 3.9 39.1 59 -3.4 25.8
19:40 1010 29.83 839 24.78 4.2 39.5 57 -3.6 25.6
19:45 1010 29.83 839 24.78 4.3 39.7 57 -3.5 25.7
19:50 1010 29.83 839 24.78 4.2 39.5 58 -3.3 26.1
19:55 1010 29.83 839 24.78 4 39.2 58 -3.5 25.7
20:00 1010 29.83 839 24.78 3.8 38.9 59 -3.4 26
20:05 1010 29.83 839 24.78 3.7 38.7 61 -3.1 26.5
20:10 1010 29.83 839 24.78 3.6 38.6 62 -3 26.6
20:15 1010 29.83 839 24.78 3.8 38.9 61 -3.1 26.5
20:20 1010 29.83 839 24.78 3.9 39.1 63 -2.6 27.4
20:25 1010 29.83 839 24.78 3.7 38.6 63 -2.8 26.9
20:30 1010 29.83 839 24.78 3.7 38.7 64 -2.5 27.4
20:35 1010 29.83 840 24.81 3.7 38.6 64 -2.5 27.4
20:40 1010 29.83 840 24.81 3.7 38.6 64 -2.5 27.4
20:45 1010 29.83 840 24.81 3.5 38.4 65 -2.5 27.6
20:50 1010 29.83 840 24.81 3.4 38.1 66 -2.4 27.6
20:55 1010 29.83 840 24.81 3.2 37.8 65 -2.7 27.2
21:00 1011 29.85 840 24.81 3.2 37.8 64 -2.9 26.8
21:05 1011 29.85 840 24.81 3.1 37.6 65 -2.8 26.9
21:10 1011 29.85 840 24.81 2.9 37.3 65 -2.9 26.8
21:15 1011 29.85 840 24.81 2.9 37.2 65 -3 26.7
21:20 1011 29.85 840 24.81 2.9 37.1 66 -2.9 26.8
21:25 1011 29.85 840 24.81 2.7 36.8 66 -3 26.6
21:30 1011 29.85 840 24.81 2.6 36.6 65 -3.3 26
21:35 1011 29.85 840 24.81 2.8 37.1 64 -3.2 26.2
21:40 1011 29.85 840 24.81 2.9 37.3 65 -3 26.6
21:45 1011 29.85 840 24.81 2.8 37 65 -3.1 26.5
21:50 1011 29.85 840 24.81 2.8 37 65 -3.2 26.2
21:55 1011 29.85 840 24.81 2.9 37.3 63 -3.5 25.7
22:00 1011 29.85 840 24.81 3 37.4 63 -3.4 25.8
22:05 1011 29.85 840 24.81 3 37.4 63 -3.3 26
22:10 1011 29.85 840 24.81 2.7 36.9 64 -3.4 25.8
22:15 1011 29.85 840 24.81 2.6 36.7 64 -3.4 25.8
22:20 1011 29.85 840 24.81 2.6 36.7 64 -3.4 25.8
22:25 1011 29.85 840 24.81 2.5 36.6 65 -3.4 25.8
22:30 1011 29.85 840 24.81 2.4 36.3 65 -3.5 25.8
22:35 1011 29.85 840 24.81 2.3 36.2 65 -3.5 25.7
22:40 1011 29.85 840 24.81 2.2 36 66 -3.5 25.7
22:45 1011 29.85 840 24.81 2.2 35.9 66 -3.5 25.7
22:50 1011 29.85 841 24.83 2.2 35.9 66 -3.5 25.7
22:55 1011 29.85 841 24.83 2.3 36.1 65 -3.6 25.6
23:00 1011 29.85 841 24.83 2.2 36 66 -3.5 25.7
23:05 1011 29.85 841 24.83 2.3 36.1 65 -3.6 25.4
23:10 1012 29.88 841 24.83 1.6 34.9 69 -3.4 25.9
23:15 1012 29.88 841 24.83 1.2 34.2 70 -3.6 25.5
23:20 1012 29.88 841 24.83 1.3 34.3 70 -3.6 25.4
23:25 1012 29.88 841 24.83 1.5 34.7 69 -3.6 25.5
23:30 1012 29.88 841 24.83 1.4 34.6 70 -3.5 25.7
23:35 1012 29.88 841 24.83 1.2 34.1 70 -3.7 25.4
23:40 1012 29.88 841 24.83 0.7 33.3 72 -3.8 25.1
23:45 1012 29.88 841 24.83 0.7 33.3 72 -3.8 25.1
23:50 1012 29.88 841 24.83 0.4 32.8 73 -3.8 25.1
23:55 1012 29.88 841 24.83 0.5 32.9 73 -3.9 25.1
24:00 1012 29.88 841 24.83 0.8 33.4 70 -4.1 24.7